Terminal Aerodrome Forecast
Issued by NWS

Home | Current Version | Previous Version | Text Only | Print | Product List | Glossary On
Versions: 1 2 3 4 5 6 7 8 9 10 11 12 13 14 15 16 17 18 19 20 21 22
251
FTUS41 KOKX 131400 AAB
TAFHPN
TAF AMD
KHPN 131400Z 1314/1412 31020G30KT P6SM BKN150
     FM131800 31022G35KT P6SM BKN090
     FM140700 31017G29KT P6SM SCT250
      AMD NOT SKED=

USA.gov is the U.S. government's official web portal to all federal, state and local government web resources and services.